Time;durP1;ratioP1;P1;durP2;ratioP2;P2;SDS_P1;SDS_P2;PMS_P1;PMS_P2;Temp;Humidity;BMP_temperature;BMP_pressure;BME280_temperature;BME280_humidity;BME280_pressure;Samples;Min_cycle;Max_cycle;Signal;HPM_P1;HPM_P2
2023/11/01 00:01:08;;;;;;;10.38;5.72;;;10.00;99.90;;;;;;4982569;28;20235;-80
2023/11/01 00:03:34;;;;;;;8.60;6.40;;;10.00;99.90;;;;;;4983790;28;20258;-81
2023/11/01 00:06:01;;;;;;;15.75;6.68;;;10.00;99.90;;;;;;4984384;28;20236;-82
2023/11/01 00:08:30;;;;;;;9.02;5.53;;;10.00;99.90;;;;;;4987102;28;20198;-81
2023/11/01 00:10:57;;;;;;;9.15;5.07;;;10.00;99.90;;;;;;4993170;28;20207;-81
2023/11/01 00:13:24;;;;;;;11.85;4.65;;;10.00;99.90;;;;;;4989019;28;20285;-79
2023/11/01 00:15:51;;;;;;;7.00;6.32;;;10.00;99.90;;;;;;4978503;28;20254;-79
2023/11/01 00:18:18;;;;;;;7.50;4.50;;;10.00;99.90;;;;;;4986555;28;20206;-80
2023/11/01 00:20:45;;;;;;;13.77;5.80;;;10.00;99.90;;;;;;4982532;28;20203;-80
2023/11/01 00:23:12;;;;;;;6.63;5.65;;;10.00;99.90;;;;;;4985127;28;20207;-80
2023/11/01 00:25:40;;;;;;;6.03;5.20;;;10.10;99.90;;;;;;4978768;28;20273;-79
2023/11/01 00:28:07;;;;;;;10.60;6.13;;;10.10;99.90;;;;;;4973885;28;20238;-80
2023/11/01 00:30:35;;;;;;;7.63;5.03;;;10.10;99.90;;;;;;4981155;28;20210;-80
2023/11/01 00:33:02;;;;;;;7.28;5.30;;;10.10;99.90;;;;;;4973455;28;20250;-80
2023/11/01 00:35:29;;;;;;;6.43;5.18;;;10.10;99.90;;;;;;4983807;28;20290;-80
2023/11/01 00:37:56;;;;;;;7.03;5.68;;;10.10;99.90;;;;;;4977849;28;20240;-81
2023/11/01 00:40:23;;;;;;;5.88;4.40;;;10.20;99.90;;;;;;4977901;28;20258;-80
2023/11/01 00:42:51;;;;;;;6.18;5.07;;;10.20;99.90;;;;;;4980313;28;20275;-82
2023/11/01 00:45:18;;;;;;;12.80;6.45;;;10.20;99.90;;;;;;4983055;28;20206;-81
2023/11/01 00:47:45;;;;;;;11.73;6.32;;;10.20;99.90;;;;;;4988044;28;20273;-79
2023/11/01 00:50:12;;;;;;;7.72;5.65;;;10.20;99.90;;;;;;4992618;28;20289;-81
2023/11/01 00:52:39;;;;;;;7.43;5.53;;;10.10;99.90;;;;;;4989017;28;20239;-79
2023/11/01 00:55:07;;;;;;;5.22;4.72;;;10.20;99.90;;;;;;4987835;28;20234;-81
2023/11/01 00:57:34;;;;;;;9.93;6.55;;;10.20;99.90;;;;;;4992524;28;20254;-80
2023/11/01 01:00:06;;;;;;;9.10;5.55;;;10.20;99.90;;;;;;4997165;28;20211;-80
2023/11/01 01:02:33;;;;;;;9.88;5.13;;;10.20;99.90;;;;;;4996229;28;20206;-80
2023/11/01 01:05:00;;;;;;;9.48;6.47;;;10.20;99.90;;;;;;4994884;28;20730;-80
2023/11/01 01:07:27;;;;;;;10.93;7.00;;;10.30;99.90;;;;;;4997178;28;20228;-79
2023/11/01 01:09:54;;;;;;;9.07;5.93;;;10.20;99.90;;;;;;5001623;28;20297;-81
2023/11/01 01:12:21;;;;;;;9.48;6.68;;;10.20;99.90;;;;;;4996958;28;20198;-82
2023/11/01 01:14:48;;;;;;;7.95;5.82;;;10.30;99.90;;;;;;4999057;28;20216;-79
2023/11/01 01:17:16;;;;;;;13.15;8.27;;;10.20;99.90;;;;;;4997443;28;20227;-81
2023/11/01 01:19:43;;;;;;;9.88;6.45;;;10.30;99.90;;;;;;4997665;28;20232;-80
2023/11/01 01:22:10;;;;;;;10.85;8.93;;;10.30;99.90;;;;;;4998175;28;20199;-80
2023/11/01 01:24:37;;;;;;;9.65;7.47;;;10.30;99.90;;;;;;5002030;28;20235;-79
2023/11/01 01:27:04;;;;;;;9.75;8.10;;;10.30;99.90;;;;;;4998394;28;20290;-80
2023/11/01 01:29:30;;;;;;;13.48;8.75;;;10.20;99.90;;;;;;4999645;28;20206;-79
2023/11/01 01:31:57;;;;;;;14.50;9.23;;;10.20;99.90;;;;;;4997236;28;20203;-80
2023/11/01 01:34:25;;;;;;;11.98;9.00;;;10.20;99.90;;;;;;4991419;28;20243;-80
2023/11/01 01:36:52;;;;;;;11.13;8.75;;;10.20;99.90;;;;;;4996114;28;20240;-80
2023/11/01 01:39:21;;;;;;;17.95;9.80;;;10.30;99.90;;;;;;4995460;28;20250;-81
2023/11/01 01:41:48;;;;;;;9.60;7.50;;;10.30;99.90;;;;;;4982221;28;20262;-80
2023/11/01 01:44:15;;;;;;;13.18;8.00;;;10.30;99.90;;;;;;4980913;28;20646;-81
2023/11/01 01:46:42;;;;;;;15.57;10.63;;;10.30;99.90;;;;;;4980888;28;20331;-80
2023/11/01 01:49:09;;;;;;;11.23;9.25;;;10.30;99.90;;;;;;4982363;28;20227;-81
2023/11/01 01:51:39;;;;;;;12.40;9.02;;;10.40;99.90;;;;;;4980051;28;20206;-80
2023/11/01 01:54:06;;;;;;;16.17;9.50;;;10.30;99.90;;;;;;4974799;28;20286;-81
2023/11/01 01:56:33;;;;;;;17.10;9.65;;;10.40;99.90;;;;;;4981060;28;20224;-80
2023/11/01 01:59:00;;;;;;;13.40;10.23;;;10.40;99.90;;;;;;4979349;28;20217;-81
2023/11/01 02:01:29;;;;;;;20.42;11.70;;;10.30;99.90;;;;;;4983287;28;20199;-81
2023/11/01 02:03:56;;;;;;;14.75;10.02;;;10.40;99.90;;;;;;4975230;28;20199;-80
2023/11/01 02:06:23;;;;;;;10.90;8.90;;;10.50;99.90;;;;;;4968605;28;20246;-81
2023/11/01 02:08:51;;;;;;;19.17;11.18;;;10.50;99.90;;;;;;4980947;28;20211;-80
2023/11/01 02:11:18;;;;;;;16.48;10.07;;;10.50;99.90;;;;;;4981639;28;20217;-80
2023/11/01 02:13:46;;;;;;;18.40;12.27;;;10.40;99.90;;;;;;4977027;28;20242;-81
2023/11/01 02:16:13;;;;;;;25.63;12.90;;;10.40;99.90;;;;;;4980955;28;20226;-81
2023/11/01 02:18:39;;;;;;;14.32;10.77;;;10.30;99.90;;;;;;4983673;28;20198;-79
2023/11/01 02:21:07;;;;;;;22.83;11.20;;;10.20;99.90;;;;;;4981173;28;20213;-80
2023/11/01 02:23:36;;;;;;;14.05;10.70;;;10.30;99.90;;;;;;4980957;28;20448;-81
2023/11/01 02:26:03;;;;;;;20.40;14.50;;;10.30;99.90;;;;;;4978221;28;20341;-81
2023/11/01 02:28:30;;;;;;;16.42;11.40;;;10.30;99.90;;;;;;4974468;28;20231;-79
2023/11/01 02:30:57;;;;;;;16.73;11.10;;;10.30;99.90;;;;;;4977026;28;20229;-80
2023/11/01 02:33:24;;;;;;;18.88;11.60;;;10.30;99.90;;;;;;4980976;28;20207;-81
2023/11/01 02:35:51;;;;;;;19.88;11.95;;;10.30;99.90;;;;;;4979655;28;20672;-80
2023/11/01 02:38:17;;;;;;;14.57;11.15;;;10.40;99.90;;;;;;4974910;28;20282;-81
2023/11/01 02:40:46;;;;;;;14.65;12.35;;;10.30;99.90;;;;;;4980732;28;20237;-79
2023/11/01 02:43:13;;;;;;;16.77;10.55;;;10.30;99.90;;;;;;4978766;28;20208;-79
2023/11/01 02:45:40;;;;;;;21.30;12.43;;;10.30;99.90;;;;;;4976932;28;20276;-81
2023/11/01 02:48:07;;;;;;;21.60;14.50;;;10.40;99.90;;;;;;4979469;28;20270;-80
2023/11/01 02:50:34;;;;;;;17.98;12.55;;;10.30;99.90;;;;;;4980044;28;20212;-80
2023/11/01 02:53:01;;;;;;;14.85;11.80;;;10.40;99.90;;;;;;4977680;28;20661;-79
2023/11/01 02:55:28;;;;;;;15.23;12.40;;;10.40;99.90;;;;;;4982422;28;20289;-81
2023/11/01 02:57:56;;;;;;;14.70;11.75;;;10.40;99.90;;;;;;4979103;28;20250;-81
2023/11/01 03:00:23;;;;;;;20.48;14.18;;;10.40;99.90;;;;;;4978714;28;20743;-81
2023/11/01 03:02:53;;;;;;;22.55;12.70;;;10.40;99.90;;;;;;4977096;28;20228;-80
2023/11/01 03:05:21;;;;;;;23.75;14.55;;;10.40;99.90;;;;;;4973580;28;20241;-79
2023/11/01 03:07:47;;;;;;;22.13;14.52;;;10.40;99.90;;;;;;5014981;23;20272;-82
2023/11/01 03:10:14;;;;;;;31.58;17.20;;;10.40;99.90;;;;;;5011825;28;20213;-80
2023/11/01 03:12:42;;;;;;;22.35;13.65;;;10.40;99.90;;;;;;5001535;28;20675;-81
2023/11/01 03:15:13;;;;;;;22.20;13.40;;;10.40;99.90;;;;;;5002821;28;20213;-80
2023/11/01 03:17:42;;;;;;;19.27;15.30;;;10.40;99.90;;;;;;5005874;28;20224;-80
2023/11/01 03:20:10;;;;;;;24.23;14.57;;;10.40;99.90;;;;;;4990020;28;20206;-80
2023/11/01 03:22:37;;;;;;;17.50;11.85;;;10.40;99.90;;;;;;5000883;28;20215;-81
2023/11/01 03:25:05;;;;;;;14.25;12.73;;;10.60;99.90;;;;;;4989447;28;20217;-80
2023/11/01 03:27:31;;;;;;;17.75;13.75;;;10.60;99.90;;;;;;4984590;28;20574;-81
2023/11/01 03:29:58;;;;;;;18.20;12.55;;;10.50;99.90;;;;;;4984293;28;20214;-79
2023/11/01 03:32:26;;;;;;;31.45;17.20;;;10.50;99.90;;;;;;4996849;28;20206;-80
2023/11/01 03:34:54;;;;;;;29.13;13.98;;;10.50;99.90;;;;;;4989616;28;20258;-82
2023/11/01 03:37:19;;;;;;;22.33;15.52;;;10.60;99.90;;;;;;5002423;28;20219;-79
2023/11/01 03:39:46;;;;;;;21.77;13.30;;;10.50;99.90;;;;;;4995490;28;20198;-81
2023/11/01 03:42:13;;;;;;;21.88;14.27;;;10.60;99.90;;;;;;4995181;28;20460;-79
2023/11/01 03:44:40;;;;;;;28.27;17.40;;;10.50;99.90;;;;;;4995961;28;20286;-81
2023/11/01 03:47:07;;;;;;;19.92;14.52;;;10.50;99.90;;;;;;5014029;28;20253;-81
2023/11/01 03:49:35;;;;;;;31.30;20.27;;;10.50;99.90;;;;;;5007463;28;20252;-82
2023/11/01 03:52:03;;;;;;;30.77;16.63;;;10.50;99.90;;;;;;5006674;28;20227;-82
2023/11/01 03:54:33;;;;;;;31.30;17.20;;;10.40;99.90;;;;;;5014155;28;20547;-81
2023/11/01 03:56:59;;;;;;;28.83;18.85;;;10.50;99.90;;;;;;5010349;28;20232;-81
2023/11/01 03:59:26;;;;;;;30.63;18.40;;;10.60;99.90;;;;;;5024292;28;20217;-81
2023/11/01 04:01:53;;;;;;;33.03;19.40;;;10.60;99.90;;;;;;5017033;28;20273;-80
2023/11/01 04:04:20;;;;;;;30.77;19.92;;;10.60;99.90;;;;;;5016408;28;20238;-83
2023/11/01 04:06:48;;;;;;;34.17;22.25;;;10.60;99.90;;;;;;5026613;28;20215;-83
2023/11/01 04:09:15;;;;;;;35.95;23.48;;;10.70;99.90;;;;;;5018446;28;20286;-80
2023/11/01 04:11:42;;;;;;;35.72;22.63;;;10.70;99.90;;;;;;5020570;28;20183;-82
2023/11/01 04:14:08;;;;;;;34.00;25.38;;;10.80;99.90;;;;;;5015431;28;20286;-81
2023/11/01 04:16:35;;;;;;;33.35;20.83;;;10.70;99.90;;;;;;5022609;28;20242;-81
2023/11/01 04:19:02;;;;;;;32.40;23.52;;;10.80;99.90;;;;;;5025701;28;20231;-82
2023/11/01 04:21:29;;;;;;;32.05;22.35;;;10.90;99.90;;;;;;5021049;28;20213;-80
2023/11/01 04:23:57;;;;;;;33.78;23.77;;;10.90;99.90;;;;;;5018192;28;20206;-81
2023/11/01 04:26:24;;;;;;;41.25;26.75;;;11.00;99.90;;;;;;5017292;28;20280;-81
2023/11/01 04:28:51;;;;;;;32.38;21.65;;;11.00;99.90;;;;;;5018395;28;20192;-81
2023/11/01 04:31:24;;;;;;;46.95;26.23;;;11.00;99.90;;;;;;5007528;28;20210;-81
2023/11/01 04:33:51;;;;;;;34.83;23.40;;;11.10;99.90;;;;;;5007660;28;20228;-81
2023/11/01 04:36:24;;;;;;;44.42;28.77;;;11.10;99.90;;;;;;5000439;28;20228;-80
2023/11/01 04:38:53;;;;;;;43.75;27.67;;;11.10;99.90;;;;;;5004968;28;20215;-81
2023/11/01 04:41:21;;;;;;;42.25;26.33;;;11.10;99.90;;;;;;4992409;28;20212;-82
2023/11/01 04:43:48;;;;;;;34.35;24.02;;;11.20;99.90;;;;;;4995700;28;20261;-79
2023/11/01 04:46:15;;;;;;;46.00;29.45;;;11.10;99.90;;;;;;4994291;28;20313;-82
2023/11/01 04:48:43;;;;;;;45.00;27.60;;;11.10;99.90;;;;;;4987652;28;20230;-79
2023/11/01 04:51:10;;;;;;;37.78;23.90;;;11.10;99.90;;;;;;4987526;28;20212;-79
2023/11/01 04:53:37;;;;;;;33.92;24.42;;;11.10;99.90;;;;;;4982392;28;20209;-80
2023/11/01 04:56:05;;;;;;;40.42;27.45;;;11.10;99.90;;;;;;4989045;28;20270;-81
2023/11/01 04:58:35;;;;;;;39.35;25.15;;;11.10;99.90;;;;;;4993883;28;20212;-80
2023/11/01 05:01:04;;;;;;;38.83;27.63;;;11.10;99.90;;;;;;4989909;28;20212;-82
2023/11/01 05:03:31;;;;;;;34.55;23.17;;;11.10;99.90;;;;;;4988130;28;20279;-82
2023/11/01 05:06:00;;;;;;;45.40;28.58;;;11.20;99.90;;;;;;4996583;28;20214;-82
2023/11/01 05:08:28;;;;;;;32.25;24.17;;;11.10;99.90;;;;;;4992331;28;20228;-86
2023/11/01 05:10:55;;;;;;;42.85;27.40;;;11.10;99.90;;;;;;5002391;28;20217;-84
2023/11/01 05:13:22;;;;;;;48.90;27.90;;;11.10;99.90;;;;;;5009477;28;20849;-85
2023/11/01 05:15:51;;;;;;;40.42;24.90;;;11.10;99.90;;;;;;5012367;28;20233;-85
2023/11/01 05:18:19;;;;;;;38.47;25.90;;;11.10;99.90;;;;;;5011162;28;20203;-86
2023/11/01 05:20:49;;;;;;;45.75;27.67;;;11.10;99.90;;;;;;5001420;28;20311;-84
2023/11/01 05:23:16;;;;;;;37.88;27.80;;;11.10;99.90;;;;;;4997183;28;20203;-83
2023/11/01 05:25:44;;;;;;;33.88;26.42;;;11.10;99.90;;;;;;5002175;28;20195;-86
2023/11/01 05:28:10;;;;;;;41.35;28.45;;;11.20;99.90;;;;;;5013900;28;20749;-83
2023/11/01 05:30:37;;;;;;;53.25;31.48;;;11.20;99.90;;;;;;4990122;28;20208;-84
2023/11/01 05:33:06;;;;;;;48.05;28.73;;;11.20;99.90;;;;;;4992718;28;20310;-83
2023/11/01 05:35:36;;;;;;;47.60;28.55;;;11.20;99.90;;;;;;4990985;28;20640;-82
2023/11/01 05:38:03;;;;;;;50.45;28.65;;;11.20;99.90;;;;;;4997463;28;20249;-85
2023/11/01 05:40:30;;;;;;;37.53;25.85;;;11.20;99.90;;;;;;4993350;28;20203;-84
2023/11/01 05:42:57;;;;;;;41.35;28.05;;;11.20;99.90;;;;;;4995230;28;20270;-81
2023/11/01 05:45:25;;;;;;;48.08;28.58;;;11.20;99.90;;;;;;4992282;28;20207;-81
2023/11/01 05:47:52;;;;;;;45.97;27.75;;;11.30;99.90;;;;;;5006227;28;20242;-82
2023/11/01 05:50:23;;;;;;;48.13;32.72;;;11.30;99.90;;;;;;4997710;28;20277;-82
2023/11/01 05:52:50;;;;;;;45.25;28.40;;;11.30;99.90;;;;;;4994575;28;20221;-82
2023/11/01 05:55:17;;;;;;;44.42;29.27;;;11.30;99.90;;;;;;4997119;28;20251;-81
2023/11/01 05:57:46;;;;;;;40.10;27.45;;;11.20;99.90;;;;;;4992847;28;20227;-82
2023/11/01 06:00:14;;;;;;;46.05;30.60;;;11.30;99.90;;;;;;4986218;28;20312;-81
2023/11/01 06:02:40;;;;;;;35.97;25.08;;;11.30;99.90;;;;;;4986641;28;20287;-82
2023/11/01 06:05:08;;;;;;;38.60;27.40;;;11.30;99.90;;;;;;4992614;28;20290;-80
2023/11/01 06:07:36;;;;;;;37.20;25.67;;;11.30;99.90;;;;;;4984160;28;20731;-79
2023/11/01 06:10:03;;;;;;;39.85;26.48;;;11.30;99.90;;;;;;4986504;28;20211;-82
2023/11/01 06:12:30;;;;;;;37.03;26.75;;;11.30;99.90;;;;;;4984218;28;20216;-80
2023/11/01 06:14:57;;;;;;;36.72;26.80;;;11.30;99.90;;;;;;4996974;28;20227;-80
2023/11/01 06:17:24;;;;;;;35.88;27.05;;;11.40;99.90;;;;;;4991538;28;20820;-80
2023/11/01 06:19:51;;;;;;;38.42;25.42;;;11.40;99.90;;;;;;5001046;28;20208;-79
2023/11/01 06:22:18;;;;;;;42.75;29.73;;;11.50;99.90;;;;;;5003263;28;20209;-79
2023/11/01 06:24:46;;;;;;;41.15;28.13;;;11.40;99.90;;;;;;4991156;28;20271;-79
2023/11/01 06:27:14;;;;;;;52.03;31.02;;;11.40;99.90;;;;;;4994160;28;20314;-80
2023/11/01 06:29:42;;;;;;;33.53;24.67;;;11.40;99.90;;;;;;4983193;28;20203;-81
2023/11/01 06:32:10;;;;;;;38.42;27.48;;;11.40;99.90;;;;;;4987396;28;20656;-80
2023/11/01 06:34:38;;;;;;;51.03;32.00;;;11.40;99.90;;;;;;4993667;28;20697;-81
2023/11/01 06:37:05;;;;;;;42.38;27.55;;;11.40;99.90;;;;;;4999180;28;20233;-81
2023/11/01 06:39:32;;;;;;;44.97;28.88;;;11.40;99.90;;;;;;5003393;28;20273;-80
2023/11/01 06:42:00;;;;;;;50.83;32.60;;;11.40;99.90;;;;;;4997483;28;20643;-80
2023/11/01 06:44:27;;;;;;;35.70;25.50;;;11.40;99.90;;;;;;5000557;28;20214;-80
2023/11/01 06:46:54;;;;;;;45.67;30.65;;;11.50;99.90;;;;;;4999026;28;20260;-80
2023/11/01 06:49:20;;;;;;;32.55;25.42;;;11.50;99.90;;;;;;4997554;28;20663;-80
2023/11/01 06:51:47;;;;;;;43.80;30.25;;;11.60;99.90;;;;;;4997935;28;20287;-80
2023/11/01 06:54:14;;;;;;;34.03;24.50;;;11.60;99.90;;;;;;4994157;28;20214;-81
2023/11/01 06:56:45;;;;;;;41.67;28.13;;;11.60;99.90;;;;;;4996744;28;20242;-81
2023/11/01 06:59:13;;;;;;;41.92;28.50;;;11.60;99.90;;;;;;5008839;28;20218;-80
2023/11/01 07:01:40;;;;;;;42.97;25.85;;;11.70;99.90;;;;;;4996931;28;20282;-80
2023/11/01 07:04:07;;;;;;;40.47;28.42;;;11.70;99.90;;;;;;5000714;28;20209;-82
2023/11/01 07:06:34;;;;;;;31.02;23.05;;;11.80;99.90;;;;;;4984639;28;20261;-80
2023/11/01 07:09:01;;;;;;;42.63;27.67;;;11.80;99.90;;;;;;4991753;28;20205;-80
2023/11/01 07:11:27;;;;;;;40.72;25.38;;;11.90;99.90;;;;;;4997779;28;20737;-81
2023/11/01 07:13:54;;;;;;;39.28;26.95;;;11.90;99.90;;;;;;4996900;28;20291;-82
2023/11/01 07:16:23;;;;;;;39.13;24.10;;;12.00;99.90;;;;;;5002116;28;20365;-80
2023/11/01 07:18:49;;;;;;;36.70;27.45;;;12.00;99.90;;;;;;5002476;28;20655;-81
2023/11/01 07:21:17;;;;;;;34.78;25.42;;;12.00;99.90;;;;;;4997378;28;20301;-80
2023/11/01 07:23:44;;;;;;;34.40;24.88;;;12.00;99.90;;;;;;5003245;28;20212;-79
2023/11/01 07:26:11;;;;;;;29.90;23.52;;;12.00;99.90;;;;;;4993516;28;20742;-80
2023/11/01 07:28:38;;;;;;;30.27;23.65;;;12.00;99.90;;;;;;5001032;28;20201;-82
2023/11/01 07:31:05;;;;;;;40.55;24.88;;;12.10;99.90;;;;;;5015257;28;20265;-83
2023/11/01 07:33:33;;;;;;;29.33;23.25;;;12.10;99.90;;;;;;4997837;28;20288;-80
2023/11/01 07:36:00;;;;;;;28.58;22.45;;;12.10;99.90;;;;;;5006444;28;20296;-80
2023/11/01 07:38:27;;;;;;;28.38;23.15;;;12.20;99.90;;;;;;5008468;28;20185;-80
2023/11/01 07:40:53;;;;;;;29.65;20.92;;;12.20;99.90;;;;;;5004311;28;20231;-80
2023/11/01 07:43:20;;;;;;;23.33;18.02;;;12.20;99.90;;;;;;5004939;28;20270;-82
2023/11/01 07:45:47;;;;;;;25.98;20.65;;;12.30;99.90;;;;;;5018075;28;20308;-82
2023/11/01 07:48:14;;;;;;;20.38;16.65;;;12.30;99.90;;;;;;5015593;28;20653;-81
2023/11/01 07:50:42;;;;;;;23.10;19.63;;;12.40;99.90;;;;;;5010489;28;20204;-80
2023/11/01 07:53:09;;;;;;;19.52;15.88;;;12.40;99.90;;;;;;5008006;28;20206;-81
2023/11/01 07:55:36;;;;;;;19.58;15.45;;;12.40;99.90;;;;;;5011114;28;20323;-83
2023/11/01 07:58:03;;;;;;;21.65;15.30;;;12.50;99.90;;;;;;4992651;28;20284;-82
2023/11/01 08:00:30;;;;;;;19.25;14.43;;;12.60;99.90;;;;;;5000274;28;20202;-82
2023/11/01 08:02:57;;;;;;;15.80;12.90;;;12.60;99.90;;;;;;4994415;28;20229;-83
2023/11/01 08:05:24;;;;;;;21.52;14.75;;;12.70;99.90;;;;;;5003811;28;20217;-84
2023/11/01 08:07:53;;;;;;;16.63;13.02;;;12.70;99.90;;;;;;5006623;28;20324;-83
2023/11/01 08:10:21;;;;;;;13.18;11.43;;;12.90;99.90;;;;;;5008653;28;20305;-81
2023/11/01 08:12:48;;;;;;;13.10;11.20;;;13.00;99.90;;;;;;4999141;28;20241;-80
2023/11/01 08:15:14;;;;;;;18.42;11.68;;;13.00;99.90;;;;;;5002401;28;20243;-82
2023/11/01 08:17:41;;;;;;;12.43;11.00;;;13.10;99.90;;;;;;4999826;28;20252;-82
2023/11/01 08:20:09;;;;;;;13.05;10.60;;;13.10;99.90;;;;;;5011527;28;20626;-81
2023/11/01 08:22:36;;;;;;;13.63;11.25;;;13.20;99.90;;;;;;5007003;28;20196;-82
2023/11/01 08:25:06;;;;;;;18.77;11.80;;;13.20;99.90;;;;;;5002314;28;20322;-83
2023/11/01 08:27:33;;;;;;;10.48;9.30;;;13.20;99.90;;;;;;5010697;28;20226;-83
2023/11/01 08:30:00;;;;;;;11.95;10.20;;;13.30;99.90;;;;;;5012197;28;20209;-83
2023/11/01 08:32:27;;;;;;;16.38;9.52;;;13.20;99.90;;;;;;4995612;28;20224;-82
2023/11/01 08:34:57;;;;;;;12.75;10.50;;;13.20;99.90;;;;;;5010725;28;20755;-81
2023/11/01 08:37:24;;;;;;;17.58;10.15;;;13.30;99.90;;;;;;5009402;28;20264;-83
2023/11/01 08:39:51;;;;;;;16.67;10.07;;;13.40;99.90;;;;;;5012884;28;20198;-82
2023/11/01 08:42:19;;;;;;;15.50;9.40;;;13.30;99.90;;;;;;5006161;28;20317;-84
2023/11/01 08:44:46;;;;;;;9.90;9.00;;;13.40;99.90;;;;;;5009774;28;20221;-82
2023/11/01 08:47:33;;;;;;;13.13;9.27;;;13.30;99.90;;;;;;5005271;28;20237;-85
2023/11/01 08:53:37;;;;;;;10.48;8.45;;;13.10;99.90;;;;;;5005664;28;20231;-88
2023/11/01 08:56:10;;;;;;;12.35;7.68;;;13.20;99.90;;;;;;5005529;28;20240;-88
2023/11/01 09:02:15;;;;;;;12.60;9.32;;;13.10;99.90;;;;;;4945330;29;20247;-88
2023/11/01 09:05:03;;;;;;;9.60;8.60;;;13.10;99.90;;;;;;4957435;29;20215;-86
2023/11/01 09:07:30;;;;;;;8.38;7.43;;;13.10;99.90;;;;;;5085067;23;20292;-76
2023/11/01 09:09:57;;;;;;;10.70;6.57;;;13.20;99.90;;;;;;4994928;28;20264;-77
2023/11/01 09:12:24;;;;;;;10.80;7.65;;;13.20;99.90;;;;;;4990161;28;20288;-76
2023/11/01 09:14:51;;;;;;;8.00;6.63;;;13.10;99.90;;;;;;4983763;28;20229;-79
2023/11/01 09:17:20;;;;;;;6.15;5.40;;;12.90;99.90;;;;;;4984605;28;20336;-77
2023/11/01 09:19:47;;;;;;;8.50;6.82;;;12.90;99.90;;;;;;4996138;28;20229;-74
2023/11/01 09:22:15;;;;;;;12.05;5.97;;;12.90;99.90;;;;;;4980039;28;20692;-76
2023/11/01 09:24:42;;;;;;;9.70;8.05;;;12.80;99.90;;;;;;4986708;28;20341;-74
2023/11/01 09:27:09;;;;;;;8.25;5.60;;;12.70;99.90;;;;;;4990182;28;20265;-77
2023/11/01 09:29:36;;;;;;;7.78;5.05;;;13.00;99.90;;;;;;4988825;28;20638;-78
2023/11/01 09:32:03;;;;;;;6.22;4.97;;;12.90;99.90;;;;;;4982543;28;20709;-75
2023/11/01 09:34:32;;;;;;;7.05;5.65;;;12.90;99.90;;;;;;4991312;28;20218;-74
2023/11/01 09:36:59;;;;;;;4.97;4.65;;;13.00;99.90;;;;;;4983540;28;20317;-76
2023/11/01 09:39:26;;;;;;;7.07;5.72;;;12.90;99.90;;;;;;4991118;28;20240;-76
2023/11/01 09:42:00;;;;;;;5.38;4.40;;;13.00;99.90;;;;;;4980292;28;20210;-76
2023/11/01 09:44:29;;;;;;;5.70;4.30;;;13.00;99.90;;;;;;4976996;28;20722;-75
2023/11/01 09:46:58;;;;;;;7.97;3.78;;;13.00;99.90;;;;;;4988646;28;20240;-72
2023/11/01 09:49:25;;;;;;;5.30;4.22;;;12.90;99.90;;;;;;4977450;28;20213;-79
2023/11/01 09:51:53;;;;;;;5.90;3.88;;;12.90;99.90;;;;;;4989284;28;20226;-76
2023/11/01 09:54:21;;;;;;;3.88;3.00;;;12.90;99.90;;;;;;5000839;28;20260;-75
2023/11/01 09:56:48;;;;;;;4.50;3.47;;;12.90;99.90;;;;;;4983930;28;20249;-76
2023/11/01 09:59:15;;;;;;;4.35;3.95;;;12.90;99.90;;;;;;4987539;28;20213;-75
2023/11/01 10:01:46;;;;;;;3.63;3.03;;;12.90;99.90;;;;;;4986258;28;20225;-72
2023/11/01 10:04:13;;;;;;;5.13;3.30;;;12.90;99.90;;;;;;4988957;28;20225;-76
2023/11/01 10:06:43;;;;;;;3.05;2.83;;;12.90;99.90;;;;;;4996103;28;20252;-73
2023/11/01 10:09:12;;;;;;;2.90;2.70;;;12.90;99.90;;;;;;4991135;28;20201;-75
2023/11/01 10:11:38;;;;;;;4.00;3.60;;;12.90;99.90;;;;;;4986575;28;20233;-74
2023/11/01 10:14:05;;;;;;;4.13;3.72;;;12.80;99.90;;;;;;4989662;28;20308;-71
2023/11/01 10:16:32;;;;;;;4.50;3.85;;;12.80;99.90;;;;;;4990879;28;20746;-75
2023/11/01 10:19:00;;;;;;;2.38;2.15;;;12.90;99.90;;;;;;4997775;28;20216;-74
2023/11/01 10:21:27;;;;;;;4.07;3.58;;;12.90;99.90;;;;;;4993008;28;20208;-74
2023/11/01 10:24:00;;;;;;;2.95;2.72;;;12.90;99.90;;;;;;4995413;28;20240;-71
2023/11/01 10:26:30;;;;;;;4.30;3.90;;;13.00;99.90;;;;;;4995046;28;20205;-72
2023/11/01 10:28:58;;;;;;;3.28;2.97;;;12.90;99.90;;;;;;4995586;28;20216;-73
2023/11/01 10:31:25;;;;;;;2.75;2.55;;;13.00;99.90;;;;;;4988559;28;20252;-71
2023/11/01 10:33:52;;;;;;;3.17;2.95;;;13.00;99.90;;;;;;4989697;28;20229;-73
2023/11/01 10:36:20;;;;;;;3.92;3.60;;;13.00;99.90;;;;;;4991588;28;20210;-75
2023/11/01 10:38:50;;;;;;;3.45;2.92;;;13.00;99.90;;;;;;4987087;28;20206;-76
2023/11/01 10:41:19;;;;;;;3.35;3.05;;;13.00;99.90;;;;;;4995257;28;20205;-75
2023/11/01 10:43:48;;;;;;;2.80;2.55;;;13.10;99.90;;;;;;4992662;28;20308;-75
2023/11/01 10:46:15;;;;;;;3.38;2.83;;;13.10;99.90;;;;;;4981501;28;20202;-73
2023/11/01 10:48:45;;;;;;;4.68;2.60;;;13.10;99.90;;;;;;4988529;28;20206;-72
2023/11/01 10:51:13;;;;;;;2.40;2.30;;;13.10;99.90;;;;;;4987120;28;20675;-78
2023/11/01 10:53:43;;;;;;;3.03;2.40;;;13.10;99.90;;;;;;4983414;28;20309;-74
2023/11/01 10:56:10;;;;;;;3.28;2.97;;;13.20;99.90;;;;;;4990178;28;20209;-72
2023/11/01 10:58:44;;;;;;;3.22;2.92;;;13.20;99.90;;;;;;4987718;28;20210;-73
2023/11/01 11:01:21;;;;;;;3.42;3.13;;;13.20;99.90;;;;;;4977842;28;20881;-76
2023/11/01 11:03:56;;;;;;;3.53;2.95;;;13.30;99.90;;;;;;4985028;28;20650;-76
2023/11/01 11:06:28;;;;;;;3.33;3.13;;;13.30;99.90;;;;;;4990337;28;20197;-76
2023/11/01 11:09:27;;;;;;;4.75;3.72;;;13.30;99.90;;;;;;4992536;28;20214;-73
2023/11/01 11:12:16;;;;;;;4.40;4.10;;;13.30;99.90;;;;;;4923602;29;20592;-73
2023/11/01 11:14:44;;;;;;;3.85;3.55;;;13.30;99.90;;;;;;4980112;28;20225;-75
2023/11/01 11:17:16;;;;;;;6.50;4.30;;;13.40;99.90;;;;;;4981406;28;20305;-73
2023/11/01 11:20:11;;;;;;;4.45;4.05;;;13.40;99.90;;;;;;4979775;28;20655;-75
2023/11/01 11:23:14;;;;;;;6.60;4.72;;;13.60;99.90;;;;;;4988187;28;20197;-75
2023/11/01 11:25:45;;;;;;;6.75;4.93;;;13.70;99.90;;;;;;4986103;28;20205;-74
2023/11/01 11:28:13;;;;;;;8.18;6.13;;;13.70;99.90;;;;;;4989384;28;20212;-74
2023/11/01 11:31:08;;;;;;;7.00;4.95;;;13.70;99.90;;;;;;4983367;28;20653;-73
2023/11/01 11:33:38;;;;;;;7.88;6.50;;;13.90;99.90;;;;;;4987567;28;20232;-75
2023/11/01 11:36:13;;;;;;;10.35;7.30;;;14.00;99.90;;;;;;4984193;28;20206;-77
2023/11/01 11:38:49;;;;;;;11.45;8.38;;;14.00;99.90;;;;;;4999368;28;20202;-75
2023/11/01 11:41:17;;;;;;;9.30;7.28;;;14.00;99.90;;;;;;4991676;28;20677;-74
2023/11/01 11:44:04;;;;;;;8.10;7.30;;;14.20;99.90;;;;;;4993851;28;20230;-74
2023/11/01 11:46:33;;;;;;;8.35;7.65;;;14.20;99.90;;;;;;5005021;28;20234;-72
2023/11/01 11:49:03;;;;;;;7.70;6.88;;;14.30;99.90;;;;;;5003634;28;20233;-74
2023/11/01 11:51:33;;;;;;;8.40;6.80;;;14.40;99.90;;;;;;5005703;28;20278;-75
2023/11/01 11:54:13;;;;;;;12.48;9.80;;;14.60;99.90;;;;;;4997769;28;20492;-72
2023/11/01 11:56:40;;;;;;;15.55;8.73;;;14.60;99.90;;;;;;4991787;28;20258;-74
2023/11/01 11:59:09;;;;;;;12.70;8.48;;;14.70;99.90;;;;;;4996973;28;20247;-76
2023/11/01 12:01:36;;;;;;;9.55;8.45;;;14.80;99.90;;;;;;4979529;28;20202;-75
2023/11/01 12:04:07;;;;;;;8.80;8.00;;;14.80;99.90;;;;;;4987959;28;20259;-76
2023/11/01 12:06:44;;;;;;;9.77;8.20;;;14.80;99.90;;;;;;4999509;28;20204;-76
2023/11/01 12:09:18;;;;;;;12.05;8.40;;;14.90;99.90;;;;;;4987825;28;20213;-75
2023/11/01 12:11:49;;;;;;;12.00;9.02;;;14.90;99.90;;;;;;4978684;28;20205;-75
2023/11/01 12:14:20;;;;;;;16.73;9.75;;;14.90;99.90;;;;;;4984324;28;20316;-75
2023/11/01 12:16:49;;;;;;;10.75;8.20;;;14.90;99.90;;;;;;4984030;28;20225;-75
2023/11/01 12:19:19;;;;;;;10.18;7.65;;;15.00;99.90;;;;;;4997805;28;20612;-72
2023/11/01 12:21:48;;;;;;;11.05;8.85;;;15.00;99.90;;;;;;4984489;28;20666;-72
2023/11/01 12:24:17;;;;;;;11.73;9.05;;;15.10;99.90;;;;;;4989343;28;20227;-74
2023/11/01 12:26:57;;;;;;;7.82;6.15;;;15.10;99.90;;;;;;4985065;28;20231;-74
2023/11/01 12:29:31;;;;;;;15.27;6.60;;;15.20;99.90;;;;;;4981596;28;20293;-74
2023/11/01 12:32:03;;;;;;;11.07;6.25;;;15.20;99.90;;;;;;4985373;28;20660;-75
2023/11/01 12:34:32;;;;;;;8.68;5.68;;;15.20;99.90;;;;;;4992116;28;20227;-73
2023/11/01 12:37:01;;;;;;;6.30;5.38;;;15.20;99.90;;;;;;4987060;28;20682;-75
2023/11/01 12:39:28;;;;;;;10.77;6.32;;;15.20;99.90;;;;;;4995716;28;20211;-75
2023/11/01 12:41:56;;;;;;;13.00;7.07;;;15.30;99.90;;;;;;4985027;28;20212;-74
2023/11/01 12:44:23;;;;;;;11.18;5.90;;;15.40;99.90;;;;;;4982429;28;20778;-75
2023/11/01 12:46:50;;;;;;;7.70;5.00;;;15.50;99.90;;;;;;4985710;28;20288;-75
2023/11/01 12:49:17;;;;;;;6.23;4.20;;;15.60;99.90;;;;;;4981760;28;20658;-74